Time;durP1;ratioP1;P1;durP2;ratioP2;P2;SDS_P1;SDS_P2;PMS_P1;PMS_P2;Temp;Humidity;BMP_temperature;BMP_pressure;BME280_temperature;BME280_humidity;BME280_pressure;Samples;Min_cycle;Max_cycle;Signal;HPM_P1;HPM_P2
2022/06/20 00:01:23;;;;;;;17.83;2.70;;;10.20;99.90;;;;;;5038328;28;20026;-67
2022/06/20 00:03:50;;;;;;;12.52;2.90;;;10.20;99.90;;;;;;5026299;28;20029;-67
2022/06/20 00:06:20;;;;;;;11.98;2.85;;;10.30;99.90;;;;;;5033028;28;20041;-67
2022/06/20 00:08:47;;;;;;;9.75;3.00;;;10.30;99.90;;;;;;5032904;28;20037;-67
2022/06/20 00:11:19;;;;;;;9.80;2.90;;;10.30;99.90;;;;;;5033378;28;20029;-67
2022/06/20 00:13:47;;;;;;;21.73;3.28;;;10.40;99.90;;;;;;5032975;28;20022;-67
2022/06/20 00:16:15;;;;;;;15.88;4.18;;;10.50;99.90;;;;;;5033054;28;20030;-67
2022/06/20 00:18:41;;;;;;;16.10;3.30;;;10.60;99.90;;;;;;5036938;28;20026;-66
2022/06/20 00:21:13;;;;;;;11.75;3.20;;;10.60;99.90;;;;;;5036994;28;20032;-66
2022/06/20 00:23:38;;;;;;;15.07;4.10;;;10.70;99.90;;;;;;5036877;28;20060;-66
2022/06/20 00:26:04;;;;;;;15.73;3.65;;;10.70;99.90;;;;;;5036864;28;20037;-67
2022/06/20 00:28:30;;;;;;;17.52;3.47;;;10.70;99.90;;;;;;5036695;28;20448;-66
2022/06/20 00:30:56;;;;;;;5.97;2.95;;;10.80;99.90;;;;;;5036905;28;20397;-67
2022/06/20 00:33:21;;;;;;;6.13;2.13;;;10.90;99.90;;;;;;5036707;28;20021;-67
2022/06/20 00:35:47;;;;;;;12.75;2.50;;;10.90;99.90;;;;;;5036803;28;20068;-67
2022/06/20 00:38:18;;;;;;;7.78;2.70;;;10.90;99.90;;;;;;5076193;22;20133;-71
2022/06/20 00:40:51;;;;;;;22.20;3.13;;;11.00;99.90;;;;;;5037260;28;20079;-71
2022/06/20 00:43:40;;;;;;;4.90;2.45;;;11.10;99.90;;;;;;5037234;28;20437;-71
2022/06/20 00:46:19;;;;;;;16.70;2.60;;;11.10;99.90;;;;;;5036930;28;20028;-71
2022/06/20 00:49:01;;;;;;;14.57;2.50;;;11.10;99.90;;;;;;5040768;28;20017;-71
2022/06/20 00:51:39;;;;;;;9.70;2.22;;;11.10;99.90;;;;;;5037488;28;20060;-71
2022/06/20 00:54:17;;;;;;;11.45;2.13;;;11.10;99.90;;;;;;5037210;28;20052;-71
2022/06/20 00:57:05;;;;;;;10.88;3.08;;;11.10;99.90;;;;;;5036985;28;20481;-71
2022/06/20 00:59:34;;;;;;;15.77;3.50;;;11.20;99.90;;;;;;5036913;28;20032;-71
2022/06/20 01:02:01;;;;;;;17.23;3.70;;;11.10;99.90;;;;;;5036399;28;20037;-71
2022/06/20 01:04:35;;;;;;;22.80;3.95;;;11.10;99.90;;;;;;5036544;28;20038;-71
2022/06/20 01:07:05;;;;;;;13.35;3.22;;;11.10;99.90;;;;;;5036572;28;20026;-71
2022/06/20 01:09:36;;;;;;;19.90;3.15;;;11.10;99.90;;;;;;5036664;28;20038;-71
2022/06/20 01:12:03;;;;;;;8.75;3.25;;;11.10;99.90;;;;;;5036429;28;20075;-71
2022/06/20 01:14:34;;;;;;;14.07;3.42;;;11.00;99.90;;;;;;5036540;28;20029;-71
2022/06/20 01:17:13;;;;;;;15.52;3.90;;;11.00;99.90;;;;;;5036261;28;20425;-72
2022/06/20 01:19:44;;;;;;;15.00;3.47;;;11.00;99.90;;;;;;5017946;28;20109;-71
2022/06/20 01:22:32;;;;;;;14.85;3.28;;;11.00;99.90;;;;;;5016671;28;20053;-71
2022/06/20 01:25:44;;;;;;;20.02;3.60;;;11.00;99.90;;;;;;5016608;28;20026;-71
2022/06/20 01:28:17;;;;;;;14.23;2.83;;;11.00;99.90;;;;;;4955338;28;20454;-71
2022/06/20 01:30:45;;;;;;;8.32;3.05;;;11.00;99.90;;;;;;4956205;29;20495;-71
2022/06/20 01:33:20;;;;;;;20.17;4.45;;;11.00;99.90;;;;;;4991104;28;20440;-71
2022/06/20 01:38:32;;;;;;;10.43;3.40;;;11.00;99.90;;;;;;4996775;28;20061;-71
2022/06/20 01:43:44;;;;;;;6.72;2.38;;;11.10;99.90;;;;;;4997027;28;20582;-71
2022/06/20 01:46:13;;;;;;;9.88;2.50;;;11.00;99.90;;;;;;5021065;28;20482;-71
2022/06/20 01:48:46;;;;;;;12.45;2.80;;;11.00;99.90;;;;;;5035757;28;20038;-71
2022/06/20 01:51:22;;;;;;;15.77;2.67;;;11.00;99.90;;;;;;5035515;28;20508;-71
2022/06/20 01:53:50;;;;;;;7.55;2.17;;;11.00;99.90;;;;;;5035463;28;20045;-71
2022/06/20 01:56:18;;;;;;;9.32;2.72;;;10.90;99.90;;;;;;5035545;28;20022;-71
2022/06/20 01:58:51;;;;;;;9.15;2.55;;;10.90;99.90;;;;;;5035551;28;20026;-71
2022/06/20 02:01:17;;;;;;;16.63;2.80;;;10.90;99.90;;;;;;5035540;28;20184;-71
2022/06/20 02:03:45;;;;;;;21.05;3.30;;;10.80;99.90;;;;;;5035206;28;20079;-71
2022/06/20 02:06:15;;;;;;;14.35;3.42;;;10.80;99.90;;;;;;5035353;28;20037;-71
2022/06/20 02:08:43;;;;;;;11.57;2.83;;;10.90;99.90;;;;;;5035149;28;20025;-71
2022/06/20 02:11:32;;;;;;;11.52;2.72;;;10.90;99.90;;;;;;5035461;28;20034;-71
2022/06/20 02:14:21;;;;;;;8.82;2.40;;;11.00;99.90;;;;;;4996016;28;20142;-71
2022/06/20 02:16:54;;;;;;;8.77;2.90;;;11.00;99.90;;;;;;4995270;28;20251;-71
2022/06/20 02:19:25;;;;;;;9.77;2.67;;;11.00;99.90;;;;;;5001285;28;20025;-71
2022/06/20 02:21:57;;;;;;;10.88;2.28;;;11.00;99.90;;;;;;5015598;28;20257;-71
2022/06/20 02:24:24;;;;;;;8.52;3.08;;;11.00;99.90;;;;;;5015348;28;20474;-71
2022/06/20 02:26:53;;;;;;;7.70;2.67;;;11.00;99.90;;;;;;5015268;28;20088;-71
2022/06/20 02:29:22;;;;;;;10.15;3.30;;;11.00;99.90;;;;;;5015401;28;20029;-71
2022/06/20 02:31:52;;;;;;;7.40;2.58;;;11.00;99.90;;;;;;5015577;28;20421;-71
2022/06/20 02:34:18;;;;;;;11.15;2.65;;;10.90;99.90;;;;;;5015023;28;20041;-71
2022/06/20 02:36:44;;;;;;;10.82;2.63;;;10.80;99.90;;;;;;5013562;28;20072;-71
2022/06/20 02:39:10;;;;;;;7.82;2.88;;;10.70;99.90;;;;;;5014495;28;20026;-71
2022/06/20 02:41:39;;;;;;;19.15;3.65;;;10.60;99.90;;;;;;5015124;28;20018;-71
2022/06/20 02:44:11;;;;;;;14.23;3.30;;;10.50;99.90;;;;;;5014943;28;20032;-71
2022/06/20 02:46:37;;;;;;;8.10;2.65;;;10.40;99.90;;;;;;5015066;28;20043;-71
2022/06/20 02:49:08;;;;;;;9.07;3.10;;;10.40;99.90;;;;;;5014520;28;20022;-71
2022/06/20 02:51:37;;;;;;;12.65;3.40;;;10.40;99.90;;;;;;5014880;28;20104;-71
2022/06/20 02:54:05;;;;;;;3.88;2.70;;;10.30;99.90;;;;;;5014642;28;20033;-71
2022/06/20 02:56:36;;;;;;;6.95;2.45;;;10.30;99.90;;;;;;5023061;28;20025;-71
2022/06/20 02:59:11;;;;;;;9.07;2.45;;;10.30;99.90;;;;;;5034331;28;20029;-71
2022/06/20 03:02:02;;;;;;;14.88;4.45;;;10.20;99.90;;;;;;5034308;28;20031;-71
2022/06/20 03:04:30;;;;;;;10.82;3.53;;;10.20;99.90;;;;;;5034455;28;20095;-71
2022/06/20 03:07:01;;;;;;;19.88;4.43;;;10.20;99.90;;;;;;5034190;28;20052;-71
2022/06/20 03:09:31;;;;;;;11.73;4.53;;;10.20;99.90;;;;;;5034120;28;20105;-71
2022/06/20 03:11:57;;;;;;;8.45;3.45;;;10.20;99.90;;;;;;5034229;28;20025;-71
2022/06/20 03:14:30;;;;;;;10.70;3.97;;;10.20;99.90;;;;;;5034679;28;20029;-71
2022/06/20 03:16:57;;;;;;;12.77;3.67;;;10.10;99.90;;;;;;5025640;28;20087;-71
2022/06/20 03:19:27;;;;;;;9.63;4.10;;;10.10;99.90;;;;;;5014545;28;20414;-71
2022/06/20 03:21:56;;;;;;;16.95;4.57;;;10.00;99.90;;;;;;5014553;28;20076;-71
2022/06/20 03:24:24;;;;;;;13.63;3.97;;;10.10;99.90;;;;;;5014474;28;20065;-71
2022/06/20 03:26:51;;;;;;;10.75;3.80;;;10.10;99.90;;;;;;5014186;28;20554;-71
2022/06/20 03:29:19;;;;;;;9.90;4.75;;;10.00;99.90;;;;;;5031081;28;20030;-71
2022/06/20 03:31:45;;;;;;;11.77;3.17;;;10.00;99.90;;;;;;5033874;28;20037;-71
2022/06/20 03:34:12;;;;;;;4.00;3.05;;;9.90;99.90;;;;;;5033831;28;20033;-70
2022/06/20 03:36:40;;;;;;;7.20;3.22;;;9.90;99.90;;;;;;5033789;28;20476;-71
2022/06/20 03:39:05;;;;;;;12.02;4.28;;;9.80;99.90;;;;;;5033584;28;20025;-71
2022/06/20 03:41:32;;;;;;;10.75;4.00;;;9.70;99.90;;;;;;5033675;28;20418;-71
2022/06/20 03:44:07;;;;;;;9.68;3.53;;;9.70;99.90;;;;;;5034074;28;20366;-71
2022/06/20 03:46:42;;;;;;;10.30;3.88;;;9.70;99.90;;;;;;5033836;28;20073;-71
2022/06/20 03:49:18;;;;;;;10.23;3.80;;;9.70;99.90;;;;;;5033954;28;20108;-71
2022/06/20 03:51:57;;;;;;;7.28;3.55;;;9.60;99.90;;;;;;5036304;28;20021;-71
2022/06/20 03:54:32;;;;;;;8.20;3.55;;;9.60;99.90;;;;;;5040422;28;20033;-71
2022/06/20 03:57:07;;;;;;;9.10;4.38;;;9.70;99.90;;;;;;5040325;28;20036;-71
2022/06/20 03:59:54;;;;;;;11.80;4.38;;;9.80;99.90;;;;;;5040311;28;20461;-71
2022/06/20 04:02:29;;;;;;;10.50;4.75;;;9.90;99.90;;;;;;5040352;28;20071;-71
2022/06/20 04:05:05;;;;;;;14.10;5.60;;;10.00;99.90;;;;;;5040357;28;20033;-71
2022/06/20 04:07:40;;;;;;;9.10;5.18;;;10.20;99.90;;;;;;5040376;28;20383;-71
2022/06/20 04:13:42;;;;;;;13.30;5.18;;;10.60;99.90;;;;;;5040261;28;20096;-71
2022/06/20 04:16:20;;;;;;;15.23;6.18;;;10.90;99.90;;;;;;5039800;28;20022;-71
2022/06/20 04:18:53;;;;;;;18.30;6.20;;;11.20;99.90;;;;;;5020211;28;20113;-71
2022/06/20 04:21:33;;;;;;;11.30;4.47;;;11.50;99.90;;;;;;5020109;28;20452;-71
2022/06/20 04:24:12;;;;;;;25.58;5.57;;;11.70;99.90;;;;;;5020491;28;20042;-71
2022/06/20 04:26:46;;;;;;;13.48;5.78;;;12.00;99.90;;;;;;5032052;28;20029;-71
2022/06/20 04:29:37;;;;;;;20.02;5.20;;;12.10;99.90;;;;;;5040971;28;20017;-71
2022/06/20 04:32:03;;;;;;;23.15;5.45;;;12.10;99.90;;;;;;5040111;28;20473;-71
2022/06/20 04:34:54;;;;;;;15.02;4.57;;;12.30;99.90;;;;;;5039726;28;20039;-71
2022/06/20 04:37:31;;;;;;;11.23;4.68;;;12.30;99.90;;;;;;5039851;28;20071;-71
2022/06/20 04:40:26;;;;;;;16.50;4.88;;;12.30;99.90;;;;;;5039991;28;20025;-71
2022/06/20 04:43:02;;;;;;;8.75;4.00;;;12.30;99.90;;;;;;5019969;28;20089;-71
2022/06/20 04:45:53;;;;;;;12.32;5.10;;;12.30;99.90;;;;;;5020272;28;20053;-71
2022/06/20 04:48:22;;;;;;;8.90;3.92;;;12.10;99.90;;;;;;5020084;28;20385;-71
2022/06/20 04:50:51;;;;;;;10.40;3.78;;;12.10;99.90;;;;;;5019841;28;20133;-71
2022/06/20 04:53:33;;;;;;;17.38;3.95;;;12.10;99.90;;;;;;5019718;28;20087;-71
2022/06/20 04:56:03;;;;;;;15.20;3.45;;;12.20;99.90;;;;;;5020070;28;20033;-71
2022/06/20 04:58:34;;;;;;;11.20;3.03;;;12.10;99.90;;;;;;5020018;28;20033;-71
2022/06/20 05:01:02;;;;;;;15.95;3.38;;;12.20;99.90;;;;;;5039686;28;20021;-71
2022/06/20 05:03:31;;;;;;;9.63;3.03;;;12.20;99.90;;;;;;5037917;28;20026;-71
2022/06/20 05:05:59;;;;;;;8.25;2.80;;;12.30;99.90;;;;;;5036717;28;20046;-71
2022/06/20 05:08:38;;;;;;;11.82;2.67;;;12.40;99.90;;;;;;5036506;28;20531;-71
2022/06/20 05:11:06;;;;;;;10.05;2.90;;;12.60;99.90;;;;;;5036594;28;20030;-71
2022/06/20 05:13:41;;;;;;;5.15;2.38;;;12.70;99.90;;;;;;5036195;28;20473;-71
2022/06/20 05:16:16;;;;;;;6.95;2.92;;;12.70;99.90;;;;;;5036599;28;20052;-71
2022/06/20 05:18:44;;;;;;;17.67;3.40;;;12.80;99.90;;;;;;5036208;28;20444;-71
2022/06/20 05:21:36;;;;;;;8.27;2.88;;;12.90;99.90;;;;;;5036156;28;20022;-71
2022/06/20 05:24:17;;;;;;;9.30;2.80;;;13.00;99.90;;;;;;4997086;28;20038;-71
2022/06/20 05:26:45;;;;;;;11.98;2.83;;;13.20;99.90;;;;;;4996958;28;20034;-71
2022/06/20 05:29:30;;;;;;;8.75;2.83;;;13.40;99.90;;;;;;4996835;28;20031;-72
2022/06/20 05:32:02;;;;;;;12.57;3.22;;;13.40;99.90;;;;;;4996494;28;20026;-71
2022/06/20 05:34:44;;;;;;;12.20;3.83;;;13.30;99.90;;;;;;5022288;28;20512;-71
2022/06/20 05:37:28;;;;;;;10.85;2.78;;;13.40;99.90;;;;;;5036432;28;20424;-71
2022/06/20 05:40:38;;;;;;;10.50;3.33;;;13.30;99.90;;;;;;5036487;28;20037;-71
2022/06/20 05:43:11;;;;;;;10.15;3.03;;;13.30;99.90;;;;;;5012382;28;20045;-71
2022/06/20 05:45:37;;;;;;;14.15;3.42;;;13.30;99.90;;;;;;5035936;28;20528;-71
2022/06/20 05:48:09;;;;;;;7.30;2.80;;;13.20;99.90;;;;;;5036050;28;20037;-71
2022/06/20 05:50:46;;;;;;;10.63;3.25;;;13.10;99.90;;;;;;5035704;28;20029;-71
2022/06/20 05:53:25;;;;;;;15.10;2.97;;;12.90;99.90;;;;;;5035709;28;20445;-71
2022/06/20 05:55:55;;;;;;;11.68;2.65;;;13.00;99.90;;;;;;5035755;28;20079;-71
2022/06/20 05:58:27;;;;;;;7.05;2.35;;;12.80;99.90;;;;;;5035349;28;20018;-71
2022/06/20 06:00:55;;;;;;;9.30;2.80;;;12.60;99.90;;;;;;5035939;28;20021;-71
2022/06/20 06:03:40;;;;;;;9.27;2.53;;;12.60;99.90;;;;;;5035350;28;20040;-71
2022/06/20 06:06:16;;;;;;;7.97;2.80;;;12.50;99.90;;;;;;5035360;28;20021;-71
2022/06/20 06:08:44;;;;;;;13.85;3.38;;;12.60;99.90;;;;;;5035339;28;20406;-71
2022/06/20 06:11:15;;;;;;;8.52;3.17;;;12.60;99.90;;;;;;5035175;28;20064;-71
2022/06/20 06:14:10;;;;;;;13.00;4.25;;;12.70;99.90;;;;;;5035153;28;20029;-71
2022/06/20 06:16:58;;;;;;;;;;;12.80;99.90;;;;;;5035364;28;20053;-71
2022/06/20 06:19:48;;;;;;;5.88;2.63;;;12.70;99.90;;;;;;5029684;28;20008;-71
2022/06/20 06:22:25;;;;;;;9.38;2.70;;;12.70;99.90;;;;;;5035258;28;20053;-71
2022/06/20 06:25:21;;;;;;;14.43;3.65;;;12.90;99.90;;;;;;5035152;28;20457;-71
2022/06/20 06:27:48;;;;;;;14.82;3.40;;;13.10;99.90;;;;;;5034570;28;20115;-71
2022/06/20 06:30:19;;;;;;;7.10;2.30;;;13.20;99.90;;;;;;5034810;28;20029;-71
2022/06/20 06:32:56;;;;;;;7.15;2.65;;;13.30;99.90;;;;;;5034956;28;20061;-71
2022/06/20 06:35:31;;;;;;;8.55;2.97;;;13.10;99.90;;;;;;5034683;28;20028;-71
2022/06/20 06:38:03;;;;;;;9.10;2.55;;;13.10;99.90;;;;;;5035118;28;20045;-72
2022/06/20 06:40:32;;;;;;;6.45;2.80;;;13.40;99.90;;;;;;5034497;28;20497;-72
2022/06/20 06:42:59;;;;;;;9.27;2.92;;;13.40;99.90;;;;;;5034750;28;20041;-72
2022/06/20 06:45:27;;;;;;;5.70;2.13;;;13.30;99.90;;;;;;5034774;28;20503;-72
2022/06/20 06:48:07;;;;;;;7.28;2.20;;;13.40;99.90;;;;;;5034488;28;20048;-72
2022/06/20 06:50:55;;;;;;;4.63;2.20;;;13.70;99.90;;;;;;5034897;28;20474;-72
2022/06/20 06:53:28;;;;;;;9.63;2.55;;;14.30;99.90;;;;;;5034322;28;20026;-72
2022/06/20 06:55:59;;;;;;;8.23;2.50;;;14.90;99.90;;;;;;5034590;28;20470;-71
2022/06/20 06:58:45;;;;;;;9.70;2.70;;;15.30;99.90;;;;;;5034526;28;20029;-72
2022/06/20 07:01:14;;;;;;;12.35;2.67;;;15.60;99.90;;;;;;5034651;28;20018;-72
2022/06/20 07:03:52;;;;;;;12.15;3.10;;;15.80;99.90;;;;;;5034291;28;20114;-72
2022/06/20 07:06:34;;;;;;;10.65;2.85;;;15.60;99.90;;;;;;5034504;28;20053;-72
2022/06/20 07:09:27;;;;;;;8.25;2.83;;;15.50;99.90;;;;;;5034279;28;20034;-71
2022/06/20 07:12:06;;;;;;;12.02;3.20;;;14.90;99.90;;;;;;5034280;28;20037;-71
2022/06/20 07:14:39;;;;;;;16.50;4.05;;;13.30;99.90;;;;;;5034034;28;20022;-72
2022/06/20 07:17:16;;;;;;;15.30;3.25;;;12.60;99.90;;;;;;5034199;28;20029;-71
2022/06/20 07:19:47;;;;;;;12.73;2.85;;;12.10;99.90;;;;;;5034676;28;20058;-71
2022/06/20 07:22:14;;;;;;;15.07;3.42;;;11.90;99.90;;;;;;5034450;28;20103;-71
2022/06/20 07:24:42;;;;;;;6.05;2.60;;;11.80;99.90;;;;;;5034294;28;20107;-71
2022/06/20 07:27:18;;;;;;;8.68;2.88;;;11.80;99.90;;;;;;5033079;28;20033;-71
2022/06/20 07:29:49;;;;;;;7.07;2.85;;;11.80;99.90;;;;;;5034512;28;20032;-71
2022/06/20 07:32:22;;;;;;;3.83;2.70;;;11.90;99.90;;;;;;5034497;28;20028;-72
2022/06/20 07:34:54;;;;;;;6.85;3.17;;;12.00;99.90;;;;;;5033978;28;20388;-72
2022/06/20 07:37:49;;;;;;;9.75;3.45;;;12.20;99.90;;;;;;5033943;28;20036;-71
2022/06/20 07:40:22;;;;;;;;;;;12.60;99.90;;;;;;5034233;28;20417;-71
2022/06/20 07:43:00;;;;;;;10.27;3.28;;;13.00;99.90;;;;;;5033813;28;19905;-71
2022/06/20 07:45:32;;;;;;;10.57;3.78;;;13.40;99.90;;;;;;5034123;28;20022;-72
2022/06/20 07:48:09;;;;;;;7.43;3.90;;;14.20;99.90;;;;;;5033811;28;20071;-72
2022/06/20 07:50:59;;;;;;;10.70;3.42;;;14.80;99.90;;;;;;5033887;28;20488;-72
2022/06/20 07:53:49;;;;;;;17.25;3.92;;;15.20;99.90;;;;;;5022980;28;20393;-72
2022/06/20 07:56:27;;;;;;;11.90;4.00;;;15.70;99.90;;;;;;5034096;28;20458;-71
2022/06/20 07:59:01;;;;;;;17.33;5.45;;;16.10;99.90;;;;;;5033669;28;20436;-71
2022/06/20 08:01:32;;;;;;;12.05;4.10;;;16.10;99.90;;;;;;5035051;28;20044;-72
2022/06/20 08:04:03;;;;;;;11.00;4.13;;;16.50;99.90;;;;;;5035573;28;20452;-72
2022/06/20 08:06:43;;;;;;;12.98;3.28;;;16.70;99.90;;;;;;5033552;28;20029;-71
2022/06/20 08:09:21;;;;;;;10.90;3.15;;;16.50;99.90;;;;;;5048847;28;20025;-72
2022/06/20 08:12:01;;;;;;;13.50;4.30;;;16.30;99.90;;;;;;5033775;28;20083;-72
2022/06/20 08:14:44;;;;;;;22.45;4.22;;;16.00;99.90;;;;;;5033698;28;20021;-72
2022/06/20 08:17:11;;;;;;;16.45;3.92;;;15.50;99.90;;;;;;5033426;28;20147;-71
2022/06/20 08:19:39;;;;;;;10.70;3.83;;;15.40;99.90;;;;;;5033237;28;20021;-71
2022/06/20 08:22:29;;;;;;;8.13;3.50;;;15.50;99.90;;;;;;5033428;28;20056;-73
2022/06/20 08:25:01;;;;;;;15.85;3.80;;;15.70;99.90;;;;;;5033712;28;20377;-72
2022/06/20 08:27:36;;;;;;;14.73;4.45;;;16.30;99.90;;;;;;5033395;28;20022;-72
2022/06/20 08:30:14;;;;;;;13.93;3.58;;;16.50;99.90;;;;;;5033523;28;20496;-72
2022/06/20 08:32:56;;;;;;;16.50;3.53;;;16.50;99.90;;;;;;5033307;28;20029;-72
2022/06/20 08:35:47;;;;;;;13.82;2.75;;;16.20;99.90;;;;;;5033387;28;20474;-72
2022/06/20 08:38:48;;;;;;;7.57;2.80;;;16.20;99.90;;;;;;5034825;28;20485;-72
2022/06/20 08:41:36;;;;;;;10.20;2.97;;;16.70;99.90;;;;;;4976112;28;20105;-73
2022/06/20 08:44:29;;;;;;;8.90;2.35;;;17.00;99.90;;;;;;5033575;28;20037;-73
2022/06/20 08:47:31;;;;;;;10.75;2.78;;;17.10;99.90;;;;;;5036903;28;20499;-73
2022/06/20 08:50:12;;;;;;;5.75;2.25;;;17.10;99.90;;;;;;5037087;28;20021;-73
2022/06/20 08:53:05;;;;;;;9.57;2.72;;;16.90;99.90;;;;;;5036612;28;20037;-71
2022/06/20 08:55:30;;;;;;;11.27;3.25;;;15.50;99.90;;;;;;5036815;28;20108;-72
2022/06/20 08:58:25;;;;;;;9.23;2.47;;;14.50;99.90;;;;;;5036531;28;20045;-72
2022/06/20 09:01:12;;;;;;;6.35;1.98;;;14.00;99.90;;;;;;5036841;28;20037;-72
2022/06/20 09:04:07;;;;;;;3.03;1.80;;;13.20;99.90;;;;;;5036926;28;20061;-72
2022/06/20 09:06:51;;;;;;;7.65;1.98;;;13.00;99.90;;;;;;5037105;28;20025;-72
2022/06/20 09:09:44;;;;;;;9.88;3.25;;;13.00;99.90;;;;;;5036746;28;20138;-72
2022/06/20 09:12:50;;;;;;;4.63;2.08;;;13.20;99.90;;;;;;5036595;28;20040;-72
2022/06/20 09:15:26;;;;;;;10.18;2.45;;;13.40;99.90;;;;;;5036520;28;20025;-72
2022/06/20 09:17:55;;;;;;;8.98;3.08;;;13.90;99.90;;;;;;5036441;28;20056;-73
2022/06/20 09:20:26;;;;;;;13.90;3.60;;;14.60;99.90;;;;;;5036200;28;20037;-73
2022/06/20 09:23:00;;;;;;;8.50;2.80;;;15.30;99.90;;;;;;5036420;28;20068;-72
2022/06/20 09:25:48;;;;;;;11.02;2.80;;;15.90;99.90;;;;;;5036517;28;20022;-73
2022/06/20 09:28:27;;;;;;;10.18;3.10;;;16.40;99.90;;;;;;5036537;28;20030;-73
2022/06/20 09:31:01;;;;;;;9.88;3.22;;;16.80;99.90;;;;;;5036397;28;20018;-72
2022/06/20 09:33:32;;;;;;;9.55;2.42;;;17.10;99.90;;;;;;5036444;28;20052;-73
2022/06/20 09:36:16;;;;;;;7.43;2.10;;;16.70;99.90;;;;;;5036504;28;20021;-73
2022/06/20 09:38:52;;;;;;;5.43;2.20;;;16.00;99.90;;;;;;5036238;28;20437;-73
2022/06/20 09:41:49;;;;;;;6.78;2.20;;;15.40;99.90;;;;;;5036174;28;20021;-73
2022/06/20 09:44:39;;;;;;;6.15;1.90;;;15.10;99.90;;;;;;5015476;28;20041;-72
2022/06/20 09:47:20;;;;;;;4.53;1.58;;;14.70;99.90;;;;;;5051192;28;20036;-72
2022/06/20 09:49:48;;;;;;;5.32;1.90;;;14.60;99.90;;;;;;5035363;28;20030;-73
2022/06/20 09:52:35;;;;;;;6.47;1.80;;;14.40;99.90;;;;;;5035891;28;20501;-73
2022/06/20 09:55:16;;;;;;;5.88;2.28;;;14.30;99.90;;;;;;5035920;28;20037;-73
2022/06/20 09:58:12;;;;;;;9.43;2.65;;;14.50;99.90;;;;;;5035812;28;20047;-73
2022/06/20 10:01:23;;;;;;;8.52;2.42;;;14.90;99.90;;;;;;5036120;28;20029;-73
2022/06/20 10:04:00;;;;;;;14.18;3.60;;;15.20;99.90;;;;;;4974799;28;20438;-73
2022/06/20 10:06:54;;;;;;;9.23;3.05;;;15.60;99.90;;;;;;4974856;28;20042;-73
2022/06/20 10:09:26;;;;;;;8.20;3.30;;;15.70;99.90;;;;;;5019701;28;20401;-73
2022/06/20 10:12:09;;;;;;;6.90;2.80;;;15.70;99.90;;;;;;5035439;28;20033;-73
2022/06/20 10:14:51;;;;;;;11.75;3.05;;;15.60;99.90;;;;;;5035623;28;20033;-73
2022/06/20 10:17:29;;;;;;;9.10;2.72;;;15.70;99.90;;;;;;5035294;28;20028;-73
2022/06/20 10:20:16;;;;;;;7.07;2.45;;;15.90;99.90;;;;;;5035528;28;20029;-73
2022/06/20 10:22:46;;;;;;;10.15;2.22;;;16.20;99.90;;;;;;5035738;28;20071;-73
2022/06/20 10:25:29;;;;;;;10.13;2.80;;;16.20;99.90;;;;;;5037144;28;20036;-73
2022/06/20 10:28:18;;;;;;;9.35;2.85;;;16.20;99.90;;;;;;5036939;28;20029;-73
2022/06/20 10:31:16;;;;;;;8.20;2.38;;;16.60;99.90;;;;;;5035618;28;20026;-73
2022/06/20 10:33:50;;;;;;;8.35;2.50;;;16.80;99.90;;;;;;5035561;28;20021;-73
2022/06/20 10:36:27;;;;;;;11.27;2.10;;;17.00;99.90;;;;;;5035133;28;20394;-73
2022/06/20 10:39:10;;;;;;;9.60;2.20;;;17.00;99.90;;;;;;5034843;28;20037;-73
2022/06/20 10:41:57;;;;;;;6.93;1.90;;;17.30;99.90;;;;;;5034990;28;20072;-74
2022/06/20 10:44:43;;;;;;;5.05;1.50;;;17.50;99.90;;;;;;5035292;28;20061;-70
2022/06/20 10:48:10;;;;;;;3.42;1.60;;;17.50;99.90;;;;;;5035446;28;20039;-71
2022/06/20 10:50:49;;;;;;;5.57;1.90;;;17.50;99.90;;;;;;4954829;29;20122;-73
2022/06/20 10:53:20;;;;;;;7.53;2.03;;;17.60;99.90;;;;;;5025295;28;20101;-74
2022/06/20 10:56:07;;;;;;;4.93;1.80;;;17.60;99.90;;;;;;5035076;28;20033;-74
2022/06/20 10:59:02;;;;;;;4.68;1.77;;;17.90;99.90;;;;;;5034641;28;20474;-72
2022/06/20 11:01:45;;;;;;;7.38;1.73;;;18.20;99.90;;;;;;5034849;28;20060;-73
2022/06/20 11:04:42;;;;;;;6.28;1.92;;;18.40;99.90;;;;;;5035187;28;20466;-74
2022/06/20 11:07:16;;;;;;;7.25;2.15;;;18.00;99.90;;;;;;5035893;28;20469;-72
2022/06/20 11:10:07;;;;;;;8.98;2.70;;;17.20;99.90;;;;;;5035948;28;20029;-73
2022/06/20 11:12:54;;;;;;;9.85;2.28;;;16.80;99.90;;;;;;5035914;28;20033;-72
2022/06/20 11:15:22;;;;;;;5.07;1.60;;;16.90;99.90;;;;;;5035259;28;20033;-73
2022/06/20 11:17:50;;;;;;;9.48;2.72;;;17.50;99.90;;;;;;5034951;28;20036;-74
2022/06/20 11:20:37;;;;;;;10.23;2.67;;;17.50;99.90;;;;;;5034657;28;20034;-73
2022/06/20 11:23:28;;;;;;;6.60;1.90;;;17.80;99.90;;;;;;5034300;28;20022;-75
2022/06/20 11:26:11;;;;;;;5.97;2.33;;;18.40;99.90;;;;;;5034667;28;20021;-75
2022/06/20 11:29:13;;;;;;;12.68;2.70;;;18.50;99.90;;;;;;5032870;28;20025;-74
2022/06/20 11:32:16;;;;;;;5.03;2.08;;;17.80;99.90;;;;;;5034434;28;20021;-74
2022/06/20 11:34:48;;;;;;;5.07;2.15;;;17.20;99.90;;;;;;5034459;28;20053;-74
2022/06/20 11:37:28;;;;;;;7.30;2.15;;;17.10;99.90;;;;;;5034236;28;20018;-74
2022/06/20 11:40:22;;;;;;;4.40;2.10;;;17.40;99.90;;;;;;5034540;28;20030;-74
2022/06/20 11:43:15;;;;;;;3.97;1.63;;;18.20;99.90;;;;;;5034496;28;20025;-74
2022/06/20 11:46:05;;;;;;;4.18;2.05;;;18.70;99.90;;;;;;5034345;28;20026;-74
2022/06/20 11:48:49;;;;;;;6.32;2.53;;;18.90;99.90;;;;;;5034121;28;20030;-74
2022/06/20 11:51:57;;;;;;;9.75;2.72;;;18.70;99.90;;;;;;5034557;28;20053;-74
2022/06/20 11:54:34;;;;;;;6.43;1.98;;;18.50;99.90;;;;;;4973521;28;20050;-73
2022/06/20 11:57:09;;;;;;;5.10;1.98;;;19.00;99.90;;;;;;5026283;28;20029;-74
2022/06/20 11:59:37;;;;;;;5.25;2.30;;;18.70;99.90;;;;;;5028735;28;20022;-73
2022/06/20 12:02:42;;;;;;;9.45;2.55;;;18.00;99.90;;;;;;5014559;28;20018;-73
2022/06/20 12:05:37;;;;;;;6.07;2.67;;;17.60;99.90;;;;;;5015022;28;20054;-73
2022/06/20 12:08:18;;;;;;;3.97;1.90;;;18.20;99.90;;;;;;5015200;28;20022;-73
2022/06/20 12:10:57;;;;;;;8.75;2.20;;;18.50;99.90;;;;;;5014678;28;20050;-74
2022/06/20 12:13:27;;;;;;;7.25;2.63;;;18.70;99.90;;;;;;5026898;28;20098;-73
2022/06/20 12:16:30;;;;;;;5.00;2.08;;;18.30;99.90;;;;;;5038429;28;20025;-73
2022/06/20 12:24:32;;;;;;;8.80;2.47;;;18.30;99.90;;;;;;5037990;28;20092;-74
2022/06/20 12:26:57;;;;;;;4.68;2.33;;;17.90;99.90;;;;;;5037577;28;20075;-74
2022/06/20 12:29:27;;;;;;;4.38;2.30;;;17.50;99.90;;;;;;5037638;28;20439;-73
2022/06/20 12:31:59;;;;;;;8.90;3.10;;;17.10;99.90;;;;;;5037660;28;20021;-73
2022/06/20 12:34:27;;;;;;;8.45;3.00;;;16.70;99.90;;;;;;5037874;28;20108;-74
2022/06/20 12:37:42;;;;;;;9.70;2.78;;;16.40;99.90;;;;;;5036438;28;20022;-73
2022/06/20 12:40:29;;;;;;;5.10;2.40;;;16.20;99.90;;;;;;5008649;28;20061;-70
2022/06/20 12:43:05;;;;;;;6.07;2.38;;;16.10;99.90;;;;;;5030261;28;20113;-70
2022/06/20 12:45:52;;;;;;;12.40;2.70;;;16.00;99.90;;;;;;5036169;28;20397;-71
2022/06/20 12:48:33;;;;;;;6.03;3.03;;;16.10;99.90;;;;;;5037803;28;20025;-70
2022/06/20 12:51:11;;;;;;;10.07;2.75;;;16.00;99.90;;;;;;5037542;28;20025;-70
2022/06/20 12:54:00;;;;;;;16.05;5.35;;;15.80;99.90;;;;;;5037229;28;20465;-71
2022/06/20 12:56:52;;;;;;;7.55;3.25;;;15.60;99.90;;;;;;5037297;28;20025;-71
2022/06/20 12:59:24;;;;;;;6.57;3.05;;;15.50;99.90;;;;;;5037102;28;20029;-70
2022/06/20 13:01:59;;;;;;;9.25;3.60;;;15.60;99.90;;;;;;5037183;28;20469;-73
2022/06/20 13:04:43;;;;;;;10.80;3.17;;;15.60;99.90;;;;;;5037043;28;20367;-73
2022/06/20 13:07:15;;;;;;;;;;;15.50;99.90;;;;;;5053019;28;20184;-73
2022/06/20 13:09:49;;;;;;;8.32;2.80;;;15.10;99.90;;;;;;5019024;28;20024;-71
2022/06/20 13:12:17;;;;;;;6.78;2.90;;;14.80;99.90;;;;;;5017205;28;20026;-71
2022/06/20 13:15:21;;;;;;;8.43;2.72;;;14.50;99.90;;;;;;5016705;28;20473;-71
2022/06/20 13:18:02;;;;;;;5.95;2.13;;;14.00;99.90;;;;;;5014483;28;20089;-71
2022/06/20 13:20:33;;;;;;;3.67;1.83;;;13.60;99.90;;;;;;5010636;28;20022;-71
2022/06/20 13:23:27;;;;;;;5.35;1.77;;;13.20;99.90;;;;;;5019836;28;20075;-70
2022/06/20 13:25:59;;;;;;;;;;;13.10;99.90;;;;;;5012236;28;20049;-71
2022/06/20 13:28:36;;;;;;;4.63;2.00;;;13.00;99.90;;;;;;5020429;28;19909;-71
2022/06/20 13:31:20;;;;;;;4.03;1.73;;;12.90;99.90;;;;;;5017385;28;20026;-70
2022/06/20 13:33:50;;;;;;;;;;;12.90;99.90;;;;;;5022137;28;20018;-70
2022/06/20 13:36:48;;;;;;;3.55;2.40;;;12.80;99.90;;;;;;5017570;28;19909;-70
2022/06/20 13:39:42;;;;;;;7.63;2.70;;;12.70;99.90;;;;;;5018195;28;20056;-70
2022/06/20 13:42:37;;;;;;;2.80;2.22;;;12.80;99.90;;;;;;5023153;28;20037;-70
2022/06/20 13:45:18;;;;;;;4.65;2.70;;;12.90;99.90;;;;;;5014876;28;20057;-70
2022/06/20 13:47:46;;;;;;;4.00;2.30;;;13.50;99.90;;;;;;5010014;28;20029;-69
2022/06/20 13:50:27;;;;;;;7.07;2.47;;;15.20;99.90;;;;;;5018609;28;20026;-70
2022/06/20 13:53:07;;;;;;;5.40;2.25;;;16.60;99.90;;;;;;5011733;28;20417;-71